createdAt,value
2023-02-19T00:01:58.931Z,-5.18
2023-02-19T00:07:02.327Z,-5.26
2023-02-19T00:12:07.874Z,-5.15
2023-02-19T00:17:11.557Z,-5.32
2023-02-19T00:22:15.009Z,-5.12
2023-02-19T00:27:19.894Z,-5.30
2023-02-19T00:32:23.417Z,-5.42
2023-02-19T00:37:26.937Z,-5.73
2023-02-19T00:42:31.863Z,-5.40
2023-02-19T00:47:35.474Z,-5.94
2023-02-19T00:52:39.000Z,-5.58
2023-02-19T00:57:43.884Z,-5.52
2023-02-19T01:02:47.240Z,-5.52
2023-02-19T01:07:50.760Z,-5.84
2023-02-19T01:12:55.562Z,-5.74
2023-02-19T01:17:58.931Z,-5.57
2023-02-19T01:23:02.573Z,-5.51
2023-02-19T01:28:08.114Z,-5.44
2023-02-19T01:33:11.602Z,-5.60
2023-02-19T01:38:15.028Z,-5.71
2023-02-19T01:43:19.863Z,-5.59
2023-02-19T01:48:27.480Z,-5.72
2023-02-19T01:53:35.459Z,-5.76
2023-02-19T01:58:41.734Z,-5.63
2023-02-19T02:03:48.993Z,-5.41
2023-02-19T02:09:12.356Z,-5.71
2023-02-19T02:14:18.921Z,-5.79
2023-02-19T02:19:34.136Z,-5.30
2023-02-19T02:24:51.538Z,-5.26
2023-02-19T02:30:32.327Z,-5.42
2023-02-19T02:35:41.211Z,-5.78
2023-02-19T02:40:46.411Z,-5.86
2023-02-19T02:45:51.259Z,-5.77
2023-02-19T02:51:00.142Z,-5.80
2023-02-19T02:56:04.960Z,-5.74
2023-02-19T03:01:29.893Z,-6.05
2023-02-19T03:06:36.768Z,-6.09
2023-02-19T03:12:02.932Z,-6.14
2023-02-19T03:17:30.623Z,-6.27
2023-02-19T03:22:38.060Z,-6.11
2023-02-19T03:27:45.096Z,-6.43
2023-02-19T03:32:54.183Z,-6.47
2023-02-19T03:38:05.999Z,-6.26
2023-02-19T03:43:18.042Z,-6.07
2023-02-19T03:48:36.005Z,-5.73
2023-02-19T03:53:47.945Z,-5.95
2023-02-19T03:58:58.112Z,-6.04
2023-02-19T04:04:06.091Z,-5.77
2023-02-19T04:09:13.048Z,-5.63
2023-02-19T04:14:21.937Z,-5.94
2023-02-19T04:19:30.407Z,-5.67
2023-02-19T04:24:39.108Z,-5.76
2023-02-19T04:29:42.733Z,-6.02
2023-02-19T04:34:47.499Z,-5.95
2023-02-19T04:39:51.038Z,-6.15
2023-02-19T04:44:54.471Z,-6.11
2023-02-19T04:49:59.425Z,-6.12
2023-02-19T04:55:03.095Z,-6.01
2023-02-19T05:00:08.920Z,-6.06
2023-02-19T05:05:13.997Z,-5.91
2023-02-19T05:10:17.695Z,-5.99
2023-02-19T05:15:21.101Z,-6.08
2023-02-19T05:20:25.895Z,-5.82
2023-02-19T05:25:29.214Z,-5.66
2023-02-19T05:30:32.826Z,-5.95
2023-02-19T05:35:42.190Z,-5.87
2023-02-19T05:40:45.974Z,-6.09
2023-02-19T05:45:49.627Z,-5.94
2023-02-19T05:50:54.524Z,-5.75
2023-02-19T05:55:57.911Z,-5.49
2023-02-19T06:01:01.447Z,-5.35
2023-02-19T06:06:07.224Z,-5.13
2023-02-19T06:11:11.227Z,-5.53
2023-02-19T06:16:15.003Z,-5.57
2023-02-19T06:21:20.190Z,-5.23
2023-02-19T06:26:26.106Z,-5.15
2023-02-19T06:31:29.864Z,-5.25
2023-02-19T06:36:35.010Z,-5.14
2023-02-19T06:41:38.540Z,-5.13
2023-02-19T06:46:42.059Z,-5.30
2023-02-19T06:51:46.898Z,-5.06
2023-02-19T06:56:50.364Z,-5.22
2023-02-19T07:01:53.871Z,-5.33
2023-02-19T07:07:00.377Z,-4.66
2023-02-19T07:12:03.920Z,-4.54
2023-02-19T07:17:07.342Z,-4.72
2023-02-19T07:22:12.326Z,-5.14
2023-02-19T07:27:15.767Z,-4.58
2023-02-19T07:32:20.776Z,-4.59
2023-02-19T07:37:25.995Z,-4.72
2023-02-19T07:42:29.433Z,-4.83
2023-02-19T07:47:33.073Z,-4.97
2023-02-19T07:52:37.983Z,-5.48
2023-02-19T07:57:41.476Z,-5.27
2023-02-19T08:03:03.485Z,-4.81
2023-02-19T08:08:09.636Z,-4.58
2023-02-19T08:13:28.400Z,-4.64
2023-02-19T08:18:34.307Z,-4.45
2023-02-19T08:23:39.509Z,-4.15
2023-02-19T08:28:43.156Z,-3.99
2023-02-19T08:33:46.652Z,-3.74
2023-02-19T08:38:51.531Z,-3.43
2023-02-19T08:43:55.102Z,-3.27
2023-02-19T08:48:58.476Z,-2.98
2023-02-19T08:54:05.465Z,-3.46
2023-02-19T08:59:09.006Z,-3.36
2023-02-19T09:04:14.073Z,-2.95
2023-02-19T09:09:18.979Z,-3.53
2023-02-19T09:14:22.387Z,-3.08
2023-02-19T09:19:26.657Z,-3.09
2023-02-19T09:24:31.642Z,-2.99
2023-02-19T09:29:35.111Z,-3.25
2023-02-19T09:34:39.185Z,-3.25
2023-02-19T09:39:43.992Z,-3.37
2023-02-19T09:44:49.971Z,-3.67
2023-02-19T09:49:56.699Z,-4.07
2023-02-19T09:55:06.567Z,-3.79
2023-02-19T10:00:23.006Z,-3.55
2023-02-19T10:06:15.893Z,-3.84
2023-02-19T10:11:21.327Z,-3.52
2023-02-19T10:16:28.231Z,-3.85
2023-02-19T10:21:31.866Z,-3.56
2023-02-19T10:26:37.017Z,-4.02
2023-02-19T10:31:40.521Z,-3.61
2023-02-19T10:36:46.432Z,-3.54
2023-02-19T10:41:52.545Z,-3.67
2023-02-19T10:46:59.231Z,-3.47
2023-02-19T10:52:17.721Z,-3.62
2023-02-19T10:57:35.471Z,-2.75
2023-02-19T11:02:39.017Z,-2.62
2023-02-19T11:07:47.537Z,-2.00
2023-02-19T11:12:54.880Z,-1.98
2023-02-19T11:18:01.494Z,-1.75
2023-02-19T11:23:15.163Z,-1.40
2023-02-19T11:28:32.602Z,-2.30
2023-02-19T11:33:36.042Z,-2.51
2023-02-19T11:38:39.432Z,-2.60
2023-02-19T11:44:00.527Z,-3.42
2023-02-19T11:49:18.934Z,-3.36
2023-02-19T11:54:35.275Z,-2.95
2023-02-19T11:59:49.480Z,-3.34
2023-02-19T12:05:08.128Z,-3.72
2023-02-19T12:10:19.489Z,-3.57
2023-02-19T12:15:41.222Z,-3.57
2023-02-19T12:20:54.507Z,-4.01
2023-02-19T12:26:03.454Z,-3.99
2023-02-19T12:31:36.924Z,-3.98
2023-02-19T12:36:51.847Z,-4.22
2023-02-19T12:42:01.265Z,-4.54
2023-02-19T12:47:08.078Z,-4.19
2023-02-19T12:52:17.833Z,-4.07
2023-02-19T12:57:25.227Z,-3.86
2023-02-19T13:02:35.174Z,-4.25
2023-02-19T13:07:42.746Z,-4.51
2023-02-19T13:12:48.474Z,-4.13
2023-02-19T13:17:56.495Z,-4.09
2023-02-19T13:23:23.419Z,-4.43
2023-02-19T13:28:42.354Z,-4.51
2023-02-19T13:34:01.592Z,-4.72
2023-02-19T13:39:07.739Z,-4.34
2023-02-19T13:44:19.431Z,-4.27
2023-02-19T13:49:41.495Z,-4.17
2023-02-19T13:54:45.037Z,-4.30
2023-02-19T13:59:48.649Z,-4.47
2023-02-19T14:04:55.827Z,-4.47
2023-02-19T14:10:01.958Z,-4.39
2023-02-19T14:15:51.702Z,-4.26
2023-02-19T14:21:08.869Z,-4.63
2023-02-19T14:26:13.105Z,-4.72
2023-02-19T14:31:25.737Z,-4.77
2023-02-19T14:36:45.546Z,-4.93
2023-02-19T14:41:52.126Z,-4.79
2023-02-19T14:47:00.641Z,-5.14
2023-02-19T14:52:09.885Z,-4.83
2023-02-19T14:57:19.233Z,-4.86
2023-02-19T15:02:24.217Z,-4.64
2023-02-19T15:07:31.751Z,-4.60
2023-02-19T15:12:43.536Z,-4.86
2023-02-19T15:17:47.147Z,-4.81
2023-02-19T15:22:53.043Z,-4.93
2023-02-19T15:27:56.563Z,-4.94
2023-02-19T15:33:01.830Z,-4.79
2023-02-19T15:38:13.091Z,-5.08
2023-02-19T15:43:25.921Z,-5.25
2023-02-19T15:48:36.375Z,-5.08
2023-02-19T15:53:48.902Z,-5.36
2023-02-19T15:58:56.588Z,-5.09
2023-02-19T16:04:00.483Z,-5.17
2023-02-19T16:09:07.091Z,-4.99
2023-02-19T16:14:25.531Z,-5.21
2023-02-19T16:19:31.282Z,-5.00
2023-02-19T16:24:38.521Z,-5.00
2023-02-19T16:29:42.555Z,-4.77
2023-02-19T16:34:48.335Z,-4.50
2023-02-19T16:40:06.042Z,-4.61
2023-02-19T16:45:09.990Z,-4.75
2023-02-19T16:50:16.191Z,-4.49
2023-02-19T16:55:21.098Z,-4.84
2023-02-19T17:00:26.503Z,-4.64
2023-02-19T17:05:32.598Z,-4.70
2023-02-19T17:10:37.493Z,-4.48
2023-02-19T17:15:41.056Z,-4.53
2023-02-19T17:20:49.705Z,-4.56
2023-02-19T17:25:54.527Z,-4.63
2023-02-19T17:30:58.176Z,-4.61
2023-02-19T17:36:01.791Z,-4.48
2023-02-19T17:41:06.908Z,-4.39
2023-02-19T17:46:15.391Z,-4.16
2023-02-19T17:51:18.960Z,-4.44
2023-02-19T17:56:26.842Z,-4.44
2023-02-19T18:01:30.227Z,-4.31
2023-02-19T18:06:33.843Z,-4.33
2023-02-19T18:11:38.797Z,-4.29
2023-02-19T18:16:49.858Z,-4.27
2023-02-19T18:21:53.917Z,-4.26
2023-02-19T18:26:58.876Z,-4.32
2023-02-19T18:32:02.494Z,-4.32
2023-02-19T18:37:06.042Z,-4.41
2023-02-19T18:42:11.000Z,-4.42
2023-02-19T18:47:14.544Z,-4.32
2023-02-19T18:52:20.866Z,-4.28
2023-02-19T18:57:27.611Z,-4.39
2023-02-19T19:02:42.703Z,-4.41
2023-02-19T19:07:52.936Z,-4.52
2023-02-19T19:12:58.834Z,-4.54
2023-02-19T19:18:03.054Z,-4.54
2023-02-19T19:23:06.684Z,-4.54
2023-02-19T19:28:11.581Z,-4.47
2023-02-19T19:33:15.134Z,-4.62
2023-02-19T19:38:18.960Z,-4.65
2023-02-19T19:43:23.860Z,-4.42
2023-02-19T19:48:28.017Z,-4.46
2023-02-19T19:53:31.583Z,-4.59
2023-02-19T19:58:37.613Z,-4.40
2023-02-19T20:03:41.256Z,-4.38
2023-02-19T20:08:44.801Z,-4.52
2023-02-19T20:13:49.758Z,-4.48
2023-02-19T20:18:53.372Z,-4.50
2023-02-19T20:23:56.819Z,-4.66
2023-02-19T20:29:01.749Z,-4.62
2023-02-19T20:34:05.328Z,-4.62
2023-02-19T20:39:08.864Z,-4.68
2023-02-19T20:44:13.869Z,-4.65
2023-02-19T20:49:18.971Z,-4.49
2023-02-19T20:54:24.582Z,-4.45
2023-02-19T20:59:35.088Z,-4.48
2023-02-19T21:04:39.583Z,-4.39
2023-02-19T21:09:43.044Z,-4.34
2023-02-19T21:14:48.335Z,-4.29
2023-02-19T21:19:51.890Z,-4.35
2023-02-19T21:24:55.436Z,-4.27
2023-02-19T21:30:00.477Z,-4.32
2023-02-19T21:35:04.081Z,-4.28
2023-02-19T21:40:08.970Z,-4.21
2023-02-19T21:45:14.262Z,-4.37
2023-02-19T21:50:17.948Z,-4.43
2023-02-19T21:55:21.313Z,-4.43
2023-02-19T22:00:26.262Z,-4.43
2023-02-19T22:05:29.787Z,-4.47
2023-02-19T22:10:33.419Z,-4.48
2023-02-19T22:15:38.472Z,-4.29
2023-02-19T22:20:41.851Z,-4.23
2023-02-19T22:25:45.527Z,-4.23
2023-02-19T22:30:50.321Z,-4.13
2023-02-19T22:35:53.784Z,-4.12
2023-02-19T22:40:57.160Z,-4.11
2023-02-19T22:46:01.957Z,-4.08
2023-02-19T22:51:05.726Z,-4.14
2023-02-19T22:56:09.369Z,-4.08
2023-02-19T23:01:17.013Z,-4.17
2023-02-19T23:06:24.376Z,-4.19
2023-02-19T23:11:30.408Z,-4.40
2023-02-19T23:16:37.010Z,-4.50
2023-02-19T23:21:40.721Z,-4.36
2023-02-19T23:26:45.165Z,-4.36
2023-02-19T23:31:50.250Z,-4.40
2023-02-19T23:36:53.644Z,-4.55
2023-02-19T23:41:58.716Z,-4.60
2023-02-19T23:47:03.720Z,-4.84
2023-02-19T23:52:07.364Z,-4.92
2023-02-19T23:57:10.767Z,-4.87
